sensor_id;sensor_type;location;lat;lon;timestamp;P1;durP1;ratioP1;P2;durP2;ratioP2
36195;SDS011;22237;51.974;4.616;2024-03-06T00:01:02;2.05;;;1.23;;
36195;SDS011;22237;51.974;4.616;2024-03-06T00:03:27;5.90;;;3.13;;
36195;SDS011;22237;51.974;4.616;2024-03-06T00:05:53;3.67;;;2.70;;
36195;SDS011;22237;51.974;4.616;2024-03-06T00:08:18;4.18;;;3.47;;
36195;SDS011;22237;51.974;4.616;2024-03-06T00:10:44;2.13;;;1.50;;
36195;SDS011;22237;51.974;4.616;2024-03-06T00:13:10;5.30;;;3.35;;
36195;SDS011;22237;51.974;4.616;2024-03-06T00:15:35;7.20;;;3.45;;
36195;SDS011;22237;51.974;4.616;2024-03-06T00:18:00;3.25;;;2.25;;
36195;SDS011;22237;51.974;4.616;2024-03-06T00:20:26;3.20;;;2.50;;
36195;SDS011;22237;51.974;4.616;2024-03-06T00:22:51;4.65;;;2.00;;
36195;SDS011;22237;51.974;4.616;2024-03-06T00:25:16;3.38;;;3.17;;
36195;SDS011;22237;51.974;4.616;2024-03-06T00:27:42;9.17;;;3.57;;
36195;SDS011;22237;51.974;4.616;2024-03-06T00:30:07;4.23;;;3.20;;
36195;SDS011;22237;51.974;4.616;2024-03-06T00:32:32;7.95;;;4.15;;
36195;SDS011;22237;51.974;4.616;2024-03-06T00:34:58;3.72;;;2.47;;
36195;SDS011;22237;51.974;4.616;2024-03-06T00:37:23;5.20;;;3.50;;
36195;SDS011;22237;51.974;4.616;2024-03-06T00:39:48;10.40;;;3.17;;
36195;SDS011;22237;51.974;4.616;2024-03-06T00:42:13;5.95;;;3.67;;
36195;SDS011;22237;51.974;4.616;2024-03-06T00:44:39;5.35;;;3.28;;
36195;SDS011;22237;51.974;4.616;2024-03-06T00:47:04;4.00;;;2.65;;
36195;SDS011;22237;51.974;4.616;2024-03-06T00:49:29;12.25;;;2.65;;
36195;SDS011;22237;51.974;4.616;2024-03-06T00:51:54;4.55;;;2.55;;
36195;SDS011;22237;51.974;4.616;2024-03-06T00:54:19;5.75;;;3.17;;
36195;SDS011;22237;51.974;4.616;2024-03-06T00:56:45;3.83;;;3.17;;
36195;SDS011;22237;51.974;4.616;2024-03-06T00:59:10;3.13;;;2.45;;
36195;SDS011;22237;51.974;4.616;2024-03-06T01:01:35;6.57;;;3.55;;
36195;SDS011;22237;51.974;4.616;2024-03-06T01:04:01;5.43;;;3.63;;
36195;SDS011;22237;51.974;4.616;2024-03-06T01:06:26;5.38;;;3.05;;
36195;SDS011;22237;51.974;4.616;2024-03-06T01:08:51;3.63;;;2.90;;
36195;SDS011;22237;51.974;4.616;2024-03-06T01:11:16;4.22;;;3.80;;
36195;SDS011;22237;51.974;4.616;2024-03-06T01:13:41;4.53;;;2.88;;
36195;SDS011;22237;51.974;4.616;2024-03-06T01:16:07;6.82;;;2.58;;
36195;SDS011;22237;51.974;4.616;2024-03-06T01:18:32;4.93;;;2.53;;
36195;SDS011;22237;51.974;4.616;2024-03-06T01:20:57;5.30;;;3.83;;
36195;SDS011;22237;51.974;4.616;2024-03-06T01:23:22;4.90;;;3.22;;
36195;SDS011;22237;51.974;4.616;2024-03-06T01:25:48;6.60;;;2.70;;
36195;SDS011;22237;51.974;4.616;2024-03-06T01:28:13;5.30;;;3.87;;
36195;SDS011;22237;51.974;4.616;2024-03-06T01:30:38;7.97;;;3.03;;
36195;SDS011;22237;51.974;4.616;2024-03-06T01:33:03;4.30;;;2.90;;
36195;SDS011;22237;51.974;4.616;2024-03-06T01:35:30;4.38;;;2.70;;
36195;SDS011;22237;51.974;4.616;2024-03-06T01:37:55;3.40;;;2.47;;
36195;SDS011;22237;51.974;4.616;2024-03-06T01:40:20;7.57;;;2.17;;
36195;SDS011;22237;51.974;4.616;2024-03-06T01:42:46;4.07;;;2.40;;
36195;SDS011;22237;51.974;4.616;2024-03-06T01:45:11;3.90;;;3.10;;
36195;SDS011;22237;51.974;4.616;2024-03-06T01:47:36;3.00;;;2.00;;
36195;SDS011;22237;51.974;4.616;2024-03-06T01:50:02;8.05;;;3.55;;
36195;SDS011;22237;51.974;4.616;2024-03-06T01:52:28;5.25;;;2.72;;
36195;SDS011;22237;51.974;4.616;2024-03-06T01:54:54;3.95;;;2.25;;
36195;SDS011;22237;51.974;4.616;2024-03-06T01:57:19;3.17;;;2.42;;
36195;SDS011;22237;51.974;4.616;2024-03-06T01:59:45;6.88;;;3.40;;
36195;SDS011;22237;51.974;4.616;2024-03-06T02:02:10;6.38;;;4.22;;
36195;SDS011;22237;51.974;4.616;2024-03-06T02:04:38;3.70;;;2.42;;
36195;SDS011;22237;51.974;4.616;2024-03-06T02:07:04;9.05;;;3.58;;
36195;SDS011;22237;51.974;4.616;2024-03-06T02:09:33;3.53;;;2.42;;
36195;SDS011;22237;51.974;4.616;2024-03-06T02:11:58;8.55;;;4.22;;
36195;SDS011;22237;51.974;4.616;2024-03-06T02:14:23;6.20;;;3.47;;
36195;SDS011;22237;51.974;4.616;2024-03-06T02:16:48;5.97;;;3.67;;
36195;SDS011;22237;51.974;4.616;2024-03-06T02:19:13;6.27;;;3.23;;
36195;SDS011;22237;51.974;4.616;2024-03-06T02:21:39;4.00;;;2.75;;
36195;SDS011;22237;51.974;4.616;2024-03-06T02:24:04;5.20;;;3.10;;
36195;SDS011;22237;51.974;4.616;2024-03-06T02:26:29;3.17;;;2.50;;
36195;SDS011;22237;51.974;4.616;2024-03-06T02:28:54;3.10;;;2.75;;
36195;SDS011;22237;51.974;4.616;2024-03-06T02:31:20;3.50;;;2.97;;
36195;SDS011;22237;51.974;4.616;2024-03-06T02:33:48;3.10;;;2.78;;
36195;SDS011;22237;51.974;4.616;2024-03-06T02:36:14;3.30;;;2.97;;
36195;SDS011;22237;51.974;4.616;2024-03-06T02:38:40;3.72;;;2.75;;
36195;SDS011;22237;51.974;4.616;2024-03-06T02:41:06;7.87;;;4.17;;
36195;SDS011;22237;51.974;4.616;2024-03-06T02:43:32;2.42;;;2.22;;
36195;SDS011;22237;51.974;4.616;2024-03-06T02:45:57;5.78;;;3.65;;
36195;SDS011;22237;51.974;4.616;2024-03-06T02:48:22;5.37;;;3.00;;
36195;SDS011;22237;51.974;4.616;2024-03-06T02:50:48;5.80;;;2.97;;
36195;SDS011;22237;51.974;4.616;2024-03-06T02:53:13;7.77;;;2.97;;
36195;SDS011;22237;51.974;4.616;2024-03-06T02:55:38;4.95;;;2.47;;
36195;SDS011;22237;51.974;4.616;2024-03-06T02:58:04;2.83;;;2.50;;
36195;SDS011;22237;51.974;4.616;2024-03-06T03:00:29;3.92;;;3.47;;
36195;SDS011;22237;51.974;4.616;2024-03-06T03:02:56;2.83;;;2.45;;
36195;SDS011;22237;51.974;4.616;2024-03-06T03:05:21;4.17;;;2.73;;
36195;SDS011;22237;51.974;4.616;2024-03-06T03:07:46;4.97;;;3.63;;
36195;SDS011;22237;51.974;4.616;2024-03-06T03:10:11;3.20;;;2.90;;
36195;SDS011;22237;51.974;4.616;2024-03-06T03:12:38;2.72;;;2.47;;
36195;SDS011;22237;51.974;4.616;2024-03-06T03:15:03;4.28;;;3.00;;
36195;SDS011;22237;51.974;4.616;2024-03-06T03:17:29;4.40;;;3.28;;
36195;SDS011;22237;51.974;4.616;2024-03-06T03:19:54;5.60;;;3.53;;
36195;SDS011;22237;51.974;4.616;2024-03-06T03:22:19;4.60;;;2.88;;
36195;SDS011;22237;51.974;4.616;2024-03-06T03:24:44;2.90;;;2.70;;
36195;SDS011;22237;51.974;4.616;2024-03-06T03:27:10;7.85;;;2.42;;
36195;SDS011;22237;51.974;4.616;2024-03-06T03:29:35;6.85;;;3.30;;
36195;SDS011;22237;51.974;4.616;2024-03-06T03:32:00;5.50;;;2.75;;
36195;SDS011;22237;51.974;4.616;2024-03-06T03:34:25;3.77;;;2.37;;
36195;SDS011;22237;51.974;4.616;2024-03-06T03:36:51;4.22;;;2.55;;
36195;SDS011;22237;51.974;4.616;2024-03-06T03:39:16;4.22;;;3.05;;
36195;SDS011;22237;51.974;4.616;2024-03-06T03:41:45;6.70;;;4.07;;
36195;SDS011;22237;51.974;4.616;2024-03-06T03:44:11;5.28;;;2.97;;
36195;SDS011;22237;51.974;4.616;2024-03-06T03:46:36;5.00;;;3.20;;
36195;SDS011;22237;51.974;4.616;2024-03-06T03:49:02;6.43;;;2.60;;
36195;SDS011;22237;51.974;4.616;2024-03-06T03:51:28;9.88;;;3.97;;
36195;SDS011;22237;51.974;4.616;2024-03-06T03:53:53;5.63;;;4.88;;
36195;SDS011;22237;51.974;4.616;2024-03-06T03:56:18;4.43;;;2.65;;
36195;SDS011;22237;51.974;4.616;2024-03-06T03:58:44;3.13;;;2.28;;
36195;SDS011;22237;51.974;4.616;2024-03-06T04:01:10;5.00;;;3.22;;
36195;SDS011;22237;51.974;4.616;2024-03-06T04:03:35;3.72;;;3.08;;
36195;SDS011;22237;51.974;4.616;2024-03-06T04:06:01;6.50;;;2.33;;
36195;SDS011;22237;51.974;4.616;2024-03-06T04:08:26;2.05;;;1.80;;
36195;SDS011;22237;51.974;4.616;2024-03-06T04:10:51;5.22;;;2.42;;
36195;SDS011;22237;51.974;4.616;2024-03-06T04:13:17;6.33;;;3.60;;
36195;SDS011;22237;51.974;4.616;2024-03-06T04:15:44;7.40;;;2.80;;
36195;SDS011;22237;51.974;4.616;2024-03-06T04:18:09;5.97;;;3.63;;
36195;SDS011;22237;51.974;4.616;2024-03-06T04:20:35;3.10;;;2.47;;
36195;SDS011;22237;51.974;4.616;2024-03-06T04:23:01;3.70;;;3.00;;
36195;SDS011;22237;51.974;4.616;2024-03-06T04:25:26;4.85;;;2.53;;
36195;SDS011;22237;51.974;4.616;2024-03-06T04:27:52;7.40;;;4.18;;
36195;SDS011;22237;51.974;4.616;2024-03-06T04:30:17;9.20;;;3.10;;
36195;SDS011;22237;51.974;4.616;2024-03-06T04:32:42;3.40;;;2.03;;
36195;SDS011;22237;51.974;4.616;2024-03-06T04:35:07;8.73;;;3.60;;
36195;SDS011;22237;51.974;4.616;2024-03-06T04:37:34;5.68;;;3.28;;
36195;SDS011;22237;51.974;4.616;2024-03-06T04:39:59;3.28;;;2.47;;
36195;SDS011;22237;51.974;4.616;2024-03-06T04:42:25;4.28;;;2.92;;
36195;SDS011;22237;51.974;4.616;2024-03-06T04:44:50;9.90;;;4.80;;
36195;SDS011;22237;51.974;4.616;2024-03-06T04:47:15;5.22;;;4.70;;
36195;SDS011;22237;51.974;4.616;2024-03-06T04:49:41;4.40;;;2.83;;
36195;SDS011;22237;51.974;4.616;2024-03-06T04:52:07;4.65;;;2.40;;
36195;SDS011;22237;51.974;4.616;2024-03-06T04:54:34;6.55;;;3.22;;
36195;SDS011;22237;51.974;4.616;2024-03-06T04:56:59;6.28;;;3.92;;
36195;SDS011;22237;51.974;4.616;2024-03-06T04:59:24;2.83;;;2.53;;
36195;SDS011;22237;51.974;4.616;2024-03-06T05:01:50;5.15;;;3.50;;
36195;SDS011;22237;51.974;4.616;2024-03-06T05:04:15;4.37;;;2.30;;
36195;SDS011;22237;51.974;4.616;2024-03-06T05:06:40;2.25;;;2.05;;
36195;SDS011;22237;51.974;4.616;2024-03-06T05:09:05;4.88;;;3.35;;
36195;SDS011;22237;51.974;4.616;2024-03-06T05:11:31;5.30;;;2.70;;
36195;SDS011;22237;51.974;4.616;2024-03-06T05:13:59;2.92;;;2.33;;
36195;SDS011;22237;51.974;4.616;2024-03-06T05:16:24;2.97;;;2.67;;
36195;SDS011;22237;51.974;4.616;2024-03-06T05:18:51;2.45;;;2.03;;
36195;SDS011;22237;51.974;4.616;2024-03-06T05:21:16;7.05;;;2.70;;
36195;SDS011;22237;51.974;4.616;2024-03-06T05:23:42;5.28;;;3.35;;
36195;SDS011;22237;51.974;4.616;2024-03-06T05:26:07;5.10;;;3.97;;
36195;SDS011;22237;51.974;4.616;2024-03-06T05:28:32;1.88;;;1.75;;
36195;SDS011;22237;51.974;4.616;2024-03-06T05:30:57;10.95;;;4.57;;
36195;SDS011;22237;51.974;4.616;2024-03-06T05:33:23;6.40;;;3.83;;
36195;SDS011;22237;51.974;4.616;2024-03-06T05:35:48;4.97;;;3.80;;
36195;SDS011;22237;51.974;4.616;2024-03-06T05:38:13;3.00;;;2.58;;
36195;SDS011;22237;51.974;4.616;2024-03-06T05:40:38;3.60;;;3.30;;
36195;SDS011;22237;51.974;4.616;2024-03-06T05:43:05;4.28;;;3.38;;
36195;SDS011;22237;51.974;4.616;2024-03-06T05:45:30;2.70;;;2.30;;
36195;SDS011;22237;51.974;4.616;2024-03-06T05:47:55;4.80;;;3.17;;
36195;SDS011;22237;51.974;4.616;2024-03-06T05:50:21;7.22;;;4.22;;
36195;SDS011;22237;51.974;4.616;2024-03-06T05:52:46;2.83;;;2.58;;
36195;SDS011;22237;51.974;4.616;2024-03-06T05:55:11;4.83;;;1.83;;
36195;SDS011;22237;51.974;4.616;2024-03-06T05:57:36;10.20;;;2.60;;
36195;SDS011;22237;51.974;4.616;2024-03-06T06:00:01;4.53;;;3.20;;
36195;SDS011;22237;51.974;4.616;2024-03-06T06:02:27;7.28;;;3.45;;
36195;SDS011;22237;51.974;4.616;2024-03-06T06:04:52;14.02;;;2.80;;
36195;SDS011;22237;51.974;4.616;2024-03-06T06:07:17;3.10;;;2.80;;
36195;SDS011;22237;51.974;4.616;2024-03-06T06:09:43;3.28;;;1.98;;
36195;SDS011;22237;51.974;4.616;2024-03-06T06:12:08;3.17;;;2.22;;
36195;SDS011;22237;51.974;4.616;2024-03-06T06:14:33;5.80;;;2.22;;
36195;SDS011;22237;51.974;4.616;2024-03-06T06:16:58;3.78;;;3.35;;
36195;SDS011;22237;51.974;4.616;2024-03-06T06:19:24;3.95;;;2.88;;
36195;SDS011;22237;51.974;4.616;2024-03-06T06:21:51;4.07;;;2.25;;
36195;SDS011;22237;51.974;4.616;2024-03-06T06:24:18;1.65;;;1.55;;
36195;SDS011;22237;51.974;4.616;2024-03-06T06:26:43;4.88;;;2.97;;
36195;SDS011;22237;51.974;4.616;2024-03-06T06:29:08;2.85;;;2.47;;
36195;SDS011;22237;51.974;4.616;2024-03-06T06:31:33;3.67;;;3.28;;
36195;SDS011;22237;51.974;4.616;2024-03-06T06:33:58;7.75;;;3.33;;
36195;SDS011;22237;51.974;4.616;2024-03-06T06:36:24;2.60;;;2.10;;
36195;SDS011;22237;51.974;4.616;2024-03-06T06:38:49;2.15;;;1.95;;
36195;SDS011;22237;51.974;4.616;2024-03-06T06:41:18;2.47;;;2.15;;
36195;SDS011;22237;51.974;4.616;2024-03-06T06:43:44;1.98;;;1.80;;
36195;SDS011;22237;51.974;4.616;2024-03-06T06:46:09;1.52;;;1.17;;
36195;SDS011;22237;51.974;4.616;2024-03-06T06:48:34;2.30;;;2.10;;
36195;SDS011;22237;51.974;4.616;2024-03-06T06:51:00;4.40;;;2.70;;
36195;SDS011;22237;51.974;4.616;2024-03-06T06:53:27;9.48;;;3.20;;
36195;SDS011;22237;51.974;4.616;2024-03-06T06:55:52;1.77;;;1.40;;
36195;SDS011;22237;51.974;4.616;2024-03-06T06:58:18;2.22;;;2.10;;
36195;SDS011;22237;51.974;4.616;2024-03-06T07:00:45;3.92;;;1.83;;
36195;SDS011;22237;51.974;4.616;2024-03-06T07:03:10;2.95;;;2.15;;
36195;SDS011;22237;51.974;4.616;2024-03-06T07:05:35;2.03;;;1.67;;
36195;SDS011;22237;51.974;4.616;2024-03-06T07:08:01;11.30;;;3.95;;
36195;SDS011;22237;51.974;4.616;2024-03-06T07:10:26;3.28;;;2.53;;
36195;SDS011;22237;51.974;4.616;2024-03-06T07:12:51;5.43;;;2.75;;
36195;SDS011;22237;51.974;4.616;2024-03-06T07:15:16;3.92;;;2.10;;
36195;SDS011;22237;51.974;4.616;2024-03-06T07:17:42;5.63;;;2.83;;
36195;SDS011;22237;51.974;4.616;2024-03-06T07:20:07;5.30;;;2.70;;
36195;SDS011;22237;51.974;4.616;2024-03-06T07:22:33;2.40;;;2.00;;
36195;SDS011;22237;51.974;4.616;2024-03-06T07:24:59;5.40;;;2.88;;
36195;SDS011;22237;51.974;4.616;2024-03-06T07:27:24;3.72;;;2.63;;
36195;SDS011;22237;51.974;4.616;2024-03-06T07:29:50;1.88;;;1.73;;
36195;SDS011;22237;51.974;4.616;2024-03-06T07:32:15;5.47;;;2.20;;
36195;SDS011;22237;51.974;4.616;2024-03-06T07:34:40;2.42;;;2.17;;
36195;SDS011;22237;51.974;4.616;2024-03-06T07:37:05;2.80;;;2.30;;
36195;SDS011;22237;51.974;4.616;2024-03-06T07:39:30;3.42;;;3.08;;
36195;SDS011;22237;51.974;4.616;2024-03-06T07:41:56;3.67;;;2.30;;
36195;SDS011;22237;51.974;4.616;2024-03-06T07:44:21;4.15;;;2.65;;
36195;SDS011;22237;51.974;4.616;2024-03-06T07:46:47;5.40;;;2.10;;
36195;SDS011;22237;51.974;4.616;2024-03-06T07:49:12;3.85;;;2.13;;
36195;SDS011;22237;51.974;4.616;2024-03-06T07:51:37;2.20;;;2.00;;
36195;SDS011;22237;51.974;4.616;2024-03-06T07:54:03;2.35;;;1.90;;
36195;SDS011;22237;51.974;4.616;2024-03-06T07:56:31;8.40;;;3.58;;
36195;SDS011;22237;51.974;4.616;2024-03-06T07:58:56;8.23;;;3.22;;
36195;SDS011;22237;51.974;4.616;2024-03-06T08:01:22;4.63;;;2.08;;
36195;SDS011;22237;51.974;4.616;2024-03-06T08:03:47;7.40;;;3.65;;
36195;SDS011;22237;51.974;4.616;2024-03-06T08:06:12;4.03;;;3.05;;
36195;SDS011;22237;51.974;4.616;2024-03-06T08:08:41;10.13;;;5.07;;
36195;SDS011;22237;51.974;4.616;2024-03-06T08:11:06;3.95;;;2.25;;
36195;SDS011;22237;51.974;4.616;2024-03-06T08:13:32;3.90;;;2.50;;
36195;SDS011;22237;51.974;4.616;2024-03-06T08:15:57;8.10;;;3.07;;
36195;SDS011;22237;51.974;4.616;2024-03-06T08:18:22;4.93;;;3.22;;
36195;SDS011;22237;51.974;4.616;2024-03-06T08:20:47;2.70;;;2.30;;
36195;SDS011;22237;51.974;4.616;2024-03-06T08:23:13;2.97;;;2.33;;
36195;SDS011;22237;51.974;4.616;2024-03-06T08:25:38;6.53;;;3.22;;
36195;SDS011;22237;51.974;4.616;2024-03-06T08:28:03;3.35;;;2.78;;
36195;SDS011;22237;51.974;4.616;2024-03-06T08:30:28;7.85;;;4.25;;
36195;SDS011;22237;51.974;4.616;2024-03-06T08:32:55;4.63;;;3.75;;
36195;SDS011;22237;51.974;4.616;2024-03-06T08:35:21;3.15;;;2.67;;
36195;SDS011;22237;51.974;4.616;2024-03-06T08:37:48;5.65;;;2.92;;
36195;SDS011;22237;51.974;4.616;2024-03-06T08:40:13;3.22;;;2.67;;
36195;SDS011;22237;51.974;4.616;2024-03-06T08:45:12;5.53;;;2.60;;
36195;SDS011;22237;51.974;4.616;2024-03-06T08:47:37;4.95;;;4.32;;
36195;SDS011;22237;51.974;4.616;2024-03-06T08:50:03;5.28;;;2.63;;
36195;SDS011;22237;51.974;4.616;2024-03-06T08:52:29;6.47;;;3.30;;
36195;SDS011;22237;51.974;4.616;2024-03-06T08:54:55;4.45;;;2.30;;
36195;SDS011;22237;51.974;4.616;2024-03-06T08:57:21;11.23;;;4.13;;
36195;SDS011;22237;51.974;4.616;2024-03-06T08:59:47;4.25;;;2.65;;
36195;SDS011;22237;51.974;4.616;2024-03-06T09:02:16;4.97;;;4.00;;
36195;SDS011;22237;51.974;4.616;2024-03-06T09:04:42;4.05;;;3.75;;
36195;SDS011;22237;51.974;4.616;2024-03-06T09:07:07;6.03;;;3.00;;
36195;SDS011;22237;51.974;4.616;2024-03-06T09:09:33;6.05;;;3.08;;
36195;SDS011;22237;51.974;4.616;2024-03-06T09:12:01;5.65;;;3.97;;
36195;SDS011;22237;51.974;4.616;2024-03-06T09:14:29;8.23;;;5.07;;
36195;SDS011;22237;51.974;4.616;2024-03-06T09:16:54;6.88;;;4.03;;
36195;SDS011;22237;51.974;4.616;2024-03-06T09:19:20;5.43;;;3.00;;
36195;SDS011;22237;51.974;4.616;2024-03-06T09:21:45;9.20;;;3.00;;
36195;SDS011;22237;51.974;4.616;2024-03-06T09:24:10;5.80;;;4.07;;
36195;SDS011;22237;51.974;4.616;2024-03-06T09:26:35;9.80;;;3.77;;
36195;SDS011;22237;51.974;4.616;2024-03-06T09:29:02;6.53;;;4.20;;
36195;SDS011;22237;51.974;4.616;2024-03-06T09:31:27;6.00;;;3.97;;
36195;SDS011;22237;51.974;4.616;2024-03-06T09:33:52;9.32;;;4.30;;
36195;SDS011;22237;51.974;4.616;2024-03-06T09:36:18;11.32;;;4.30;;
36195;SDS011;22237;51.974;4.616;2024-03-06T09:38:43;11.37;;;4.53;;
36195;SDS011;22237;51.974;4.616;2024-03-06T09:41:08;9.55;;;3.92;;
36195;SDS011;22237;51.974;4.616;2024-03-06T09:43:34;14.90;;;3.88;;
36195;SDS011;22237;51.974;4.616;2024-03-06T09:45:59;9.10;;;3.75;;
36195;SDS011;22237;51.974;4.616;2024-03-06T09:48:27;6.65;;;3.75;;
36195;SDS011;22237;51.974;4.616;2024-03-06T09:50:53;6.35;;;3.63;;
36195;SDS011;22237;51.974;4.616;2024-03-06T09:53:20;5.60;;;3.10;;
36195;SDS011;22237;51.974;4.616;2024-03-06T09:55:47;9.10;;;3.28;;
36195;SDS011;22237;51.974;4.616;2024-03-06T09:58:13;5.70;;;3.38;;
36195;SDS011;22237;51.974;4.616;2024-03-06T10:00:38;2.75;;;2.08;;
36195;SDS011;22237;51.974;4.616;2024-03-06T10:03:03;3.80;;;3.15;;
36195;SDS011;22237;51.974;4.616;2024-03-06T10:05:33;5.68;;;3.63;;
36195;SDS011;22237;51.974;4.616;2024-03-06T10:08:00;5.20;;;3.00;;
36195;SDS011;22237;51.974;4.616;2024-03-06T10:10:26;7.38;;;3.72;;
36195;SDS011;22237;51.974;4.616;2024-03-06T10:12:51;6.07;;;2.45;;
36195;SDS011;22237;51.974;4.616;2024-03-06T10:15:17;4.80;;;1.80;;
36195;SDS011;22237;51.974;4.616;2024-03-06T10:17:42;4.50;;;3.03;;
36195;SDS011;22237;51.974;4.616;2024-03-06T10:20:17;9.63;;;3.95;;
36195;SDS011;22237;51.974;4.616;2024-03-06T10:22:44;5.85;;;2.45;;
36195;SDS011;22237;51.974;4.616;2024-03-06T10:25:10;3.20;;;2.35;;
36195;SDS011;22237;51.974;4.616;2024-03-06T10:27:35;9.63;;;2.22;;
36195;SDS011;22237;51.974;4.616;2024-03-06T10:30:01;3.80;;;2.37;;
36195;SDS011;22237;51.974;4.616;2024-03-06T10:32:27;4.03;;;2.00;;
36195;SDS011;22237;51.974;4.616;2024-03-06T10:34:53;2.80;;;2.23;;
36195;SDS011;22237;51.974;4.616;2024-03-06T10:37:18;4.20;;;2.87;;
36195;SDS011;22237;51.974;4.616;2024-03-06T10:39:43;4.43;;;3.10;;
36195;SDS011;22237;51.974;4.616;2024-03-06T10:42:09;1.85;;;1.63;;
36195;SDS011;22237;51.974;4.616;2024-03-06T10:44:37;4.28;;;2.75;;
36195;SDS011;22237;51.974;4.616;2024-03-06T10:47:08;2.50;;;1.63;;
36195;SDS011;22237;51.974;4.616;2024-03-06T10:49:34;9.00;;;1.92;;
36195;SDS011;22237;51.974;4.616;2024-03-06T10:52:00;4.30;;;1.98;;
36195;SDS011;22237;51.974;4.616;2024-03-06T10:54:29;3.55;;;2.15;;
36195;SDS011;22237;51.974;4.616;2024-03-06T10:56:59;6.70;;;2.35;;
36195;SDS011;22237;51.974;4.616;2024-03-06T10:59:25;3.30;;;2.72;;
36195;SDS011;22237;51.974;4.616;2024-03-06T11:01:56;9.02;;;2.97;;
36195;SDS011;22237;51.974;4.616;2024-03-06T11:04:25;2.13;;;1.80;;
36195;SDS011;22237;51.974;4.616;2024-03-06T11:06:53;4.45;;;2.28;;
36195;SDS011;22237;51.974;4.616;2024-03-06T11:09:18;3.53;;;1.77;;
36195;SDS011;22237;51.974;4.616;2024-03-06T11:11:48;6.40;;;2.25;;
36195;SDS011;22237;51.974;4.616;2024-03-06T11:14:13;6.30;;;2.22;;
36195;SDS011;22237;51.974;4.616;2024-03-06T11:16:55;2.22;;;1.77;;
36195;SDS011;22237;51.974;4.616;2024-03-06T11:19:21;4.22;;;1.77;;
36195;SDS011;22237;51.974;4.616;2024-03-06T11:21:46;5.50;;;2.80;;
36195;SDS011;22237;51.974;4.616;2024-03-06T11:24:16;3.95;;;1.73;;
36195;SDS011;22237;51.974;4.616;2024-03-06T11:26:54;0.85;;;0.85;;
36195;SDS011;22237;51.974;4.616;2024-03-06T11:29:22;2.10;;;1.08;;
36195;SDS011;22237;51.974;4.616;2024-03-06T11:32:00;2.47;;;1.53;;
36195;SDS011;22237;51.974;4.616;2024-03-06T11:34:26;2.58;;;1.33;;
36195;SDS011;22237;51.974;4.616;2024-03-06T11:36:53;1.67;;;1.50;;
36195;SDS011;22237;51.974;4.616;2024-03-06T11:39:18;1.58;;;1.08;;
36195;SDS011;22237;51.974;4.616;2024-03-06T11:41:48;4.28;;;1.67;;
36195;SDS011;22237;51.974;4.616;2024-03-06T11:46:45;2.08;;;1.38;;
36195;SDS011;22237;51.974;4.616;2024-03-06T11:49:14;1.83;;;1.45;;
36195;SDS011;22237;51.974;4.616;2024-03-06T11:51:40;1.35;;;1.25;;
36195;SDS011;22237;51.974;4.616;2024-03-06T11:54:05;2.08;;;0.90;;
36195;SDS011;22237;51.974;4.616;2024-03-06T11:56:30;3.08;;;1.55;;
36195;SDS011;22237;51.974;4.616;2024-03-06T11:58:56;1.00;;;0.87;;
36195;SDS011;22237;51.974;4.616;2024-03-06T12:01:21;1.87;;;1.33;;
36195;SDS011;22237;51.974;4.616;2024-03-06T12:03:46;1.30;;;1.30;;
36195;SDS011;22237;51.974;4.616;2024-03-06T12:06:12;1.80;;;1.30;;
36195;SDS011;22237;51.974;4.616;2024-03-06T12:08:38;1.15;;;1.08;;
36195;SDS011;22237;51.974;4.616;2024-03-06T12:11:04;2.60;;;1.30;;
36195;SDS011;22237;51.974;4.616;2024-03-06T12:13:30;3.10;;;1.38;;
36195;SDS011;22237;51.974;4.616;2024-03-06T12:15:55;3.78;;;1.80;;
36195;SDS011;22237;51.974;4.616;2024-03-06T12:18:21;1.08;;;0.95;;
36195;SDS011;22237;51.974;4.616;2024-03-06T12:20:46;2.03;;;1.02;;
36195;SDS011;22237;51.974;4.616;2024-03-06T12:23:21;1.08;;;0.82;;
36195;SDS011;22237;51.974;4.616;2024-03-06T12:25:48;3.60;;;1.58;;
36195;SDS011;22237;51.974;4.616;2024-03-06T12:28:13;0.55;;;0.55;;
36195;SDS011;22237;51.974;4.616;2024-03-06T12:30:40;0.77;;;0.77;;
36195;SDS011;22237;51.974;4.616;2024-03-06T12:33:06;1.20;;;1.10;;
36195;SDS011;22237;51.974;4.616;2024-03-06T12:35:31;0.73;;;0.73;;
36195;SDS011;22237;51.974;4.616;2024-03-06T12:37:57;1.15;;;0.95;;
36195;SDS011;22237;51.974;4.616;2024-03-06T12:40:22;1.33;;;0.98;;
36195;SDS011;22237;51.974;4.616;2024-03-06T12:42:47;0.88;;;0.70;;
36195;SDS011;22237;51.974;4.616;2024-03-06T12:45:14;1.42;;;0.93;;
36195;SDS011;22237;51.974;4.616;2024-03-06T12:47:42;1.55;;;1.45;;
36195;SDS011;22237;51.974;4.616;2024-03-06T12:50:08;3.30;;;1.13;;
36195;SDS011;22237;51.974;4.616;2024-03-06T12:52:35;1.10;;;0.90;;
36195;SDS011;22237;51.974;4.616;2024-03-06T12:55:00;1.50;;;1.07;;
36195;SDS011;22237;51.974;4.616;2024-03-06T12:57:26;1.42;;;1.33;;
36195;SDS011;22237;51.974;4.616;2024-03-06T12:59:52;2.97;;;1.33;;
36195;SDS011;22237;51.974;4.616;2024-03-06T13:02:18;2.15;;;1.95;;
36195;SDS011;22237;51.974;4.616;2024-03-06T13:04:43;1.48;;;1.23;;
36195;SDS011;22237;51.974;4.616;2024-03-06T13:07:08;1.98;;;1.30;;
36195;SDS011;22237;51.974;4.616;2024-03-06T13:09:33;1.43;;;1.13;;
36195;SDS011;22237;51.974;4.616;2024-03-06T13:11:59;1.10;;;1.03;;
36195;SDS011;22237;51.974;4.616;2024-03-06T13:14:24;1.17;;;0.93;;
36195;SDS011;22237;51.974;4.616;2024-03-06T13:16:49;1.55;;;1.20;;
36195;SDS011;22237;51.974;4.616;2024-03-06T13:19:14;2.00;;;1.37;;
36195;SDS011;22237;51.974;4.616;2024-03-06T13:21:40;1.27;;;1.17;;
36195;SDS011;22237;51.974;4.616;2024-03-06T13:24:05;1.53;;;1.23;;
36195;SDS011;22237;51.974;4.616;2024-03-06T13:26:30;2.53;;;1.48;;
36195;SDS011;22237;51.974;4.616;2024-03-06T13:28:55;1.27;;;1.17;;
36195;SDS011;22237;51.974;4.616;2024-03-06T13:31:20;4.50;;;1.37;;
36195;SDS011;22237;51.974;4.616;2024-03-06T13:33:46;1.20;;;1.10;;
36195;SDS011;22237;51.974;4.616;2024-03-06T13:36:11;1.30;;;1.20;;
36195;SDS011;22237;51.974;4.616;2024-03-06T13:38:36;2.83;;;1.33;;
36195;SDS011;22237;51.974;4.616;2024-03-06T13:41:01;0.55;;;0.55;;
36195;SDS011;22237;51.974;4.616;2024-03-06T13:43:27;3.58;;;1.42;;
36195;SDS011;22237;51.974;4.616;2024-03-06T13:45:52;2.63;;;1.25;;
36195;SDS011;22237;51.974;4.616;2024-03-06T13:48:18;1.33;;;1.23;;
36195;SDS011;22237;51.974;4.616;2024-03-06T13:50:44;0.50;;;0.50;;
36195;SDS011;22237;51.974;4.616;2024-03-06T13:53:12;3.00;;;2.05;;
36195;SDS011;22237;51.974;4.616;2024-03-06T13:55:37;2.88;;;1.27;;
36195;SDS011;22237;51.974;4.616;2024-03-06T13:58:03;1.50;;;1.20;;
36195;SDS011;22237;51.974;4.616;2024-03-06T14:00:28;2.33;;;1.83;;
36195;SDS011;22237;51.974;4.616;2024-03-06T14:02:53;2.03;;;1.45;;
36195;SDS011;22237;51.974;4.616;2024-03-06T14:05:18;4.03;;;1.90;;
36195;SDS011;22237;51.974;4.616;2024-03-06T14:07:49;1.02;;;1.02;;
36195;SDS011;22237;51.974;4.616;2024-03-06T14:10:15;5.13;;;1.83;;
36195;SDS011;22237;51.974;4.616;2024-03-06T14:12:41;1.48;;;1.33;;
36195;SDS011;22237;51.974;4.616;2024-03-06T14:15:06;2.53;;;1.25;;
36195;SDS011;22237;51.974;4.616;2024-03-06T14:17:37;6.00;;;2.58;;
36195;SDS011;22237;51.974;4.616;2024-03-06T14:20:02;1.30;;;1.00;;
36195;SDS011;22237;51.974;4.616;2024-03-06T14:22:28;2.38;;;1.77;;
36195;SDS011;22237;51.974;4.616;2024-03-06T14:24:53;3.07;;;1.80;;
36195;SDS011;22237;51.974;4.616;2024-03-06T14:27:19;1.70;;;1.40;;
36195;SDS011;22237;51.974;4.616;2024-03-06T14:29:44;3.17;;;2.13;;
36195;SDS011;22237;51.974;4.616;2024-03-06T14:32:10;1.23;;;0.95;;
36195;SDS011;22237;51.974;4.616;2024-03-06T14:34:35;1.25;;;0.93;;
36195;SDS011;22237;51.974;4.616;2024-03-06T14:37:00;2.92;;;1.85;;
36195;SDS011;22237;51.974;4.616;2024-03-06T14:39:26;0.85;;;0.70;;
36195;SDS011;22237;51.974;4.616;2024-03-06T14:41:51;3.45;;;1.25;;
36195;SDS011;22237;51.974;4.616;2024-03-06T14:44:16;3.13;;;1.42;;